sensor_id;sensor_type;location;lat;lon;timestamp;temperature;humidity
21676;DHT22;10999;51.332;9.458;2023-09-08T00:02:26;15.80;95.00
21676;DHT22;10999;51.332;9.458;2023-09-08T00:04:54;15.70;95.40
21676;DHT22;10999;51.332;9.458;2023-09-08T00:07:20;15.70;95.80
21676;DHT22;10999;51.332;9.458;2023-09-08T00:09:47;15.70;95.50
21676;DHT22;10999;51.332;9.458;2023-09-08T00:12:14;15.60;95.50
21676;DHT22;10999;51.332;9.458;2023-09-08T00:14:41;15.60;95.40
21676;DHT22;10999;51.332;9.458;2023-09-08T00:17:08;15.60;95.50
21676;DHT22;10999;51.332;9.458;2023-09-08T00:19:35;15.50;95.90
21676;DHT22;10999;51.332;9.458;2023-09-08T00:22:04;15.50;95.90
21676;DHT22;10999;51.332;9.458;2023-09-08T00:24:33;15.50;96.10
21676;DHT22;10999;51.332;9.458;2023-09-08T00:27:00;15.50;96.20
21676;DHT22;10999;51.332;9.458;2023-09-08T00:29:27;15.50;96.00
21676;DHT22;10999;51.332;9.458;2023-09-08T00:31:54;15.40;95.80
21676;DHT22;10999;51.332;9.458;2023-09-08T00:34:20;15.40;96.00
21676;DHT22;10999;51.332;9.458;2023-09-08T00:36:47;15.30;96.20
21676;DHT22;10999;51.332;9.458;2023-09-08T00:39:14;15.30;96.50
21676;DHT22;10999;51.332;9.458;2023-09-08T00:41:41;15.30;96.30
21676;DHT22;10999;51.332;9.458;2023-09-08T00:44:07;15.30;96.50
21676;DHT22;10999;51.332;9.458;2023-09-08T00:46:35;15.20;96.60
21676;DHT22;10999;51.332;9.458;2023-09-08T00:49:02;15.20;96.50
21676;DHT22;10999;51.332;9.458;2023-09-08T00:51:29;15.20;96.70
21676;DHT22;10999;51.332;9.458;2023-09-08T00:53:56;15.10;97.00
21676;DHT22;10999;51.332;9.458;2023-09-08T00:56:23;15.10;97.00
21676;DHT22;10999;51.332;9.458;2023-09-08T00:58:50;15.10;97.10
21676;DHT22;10999;51.332;9.458;2023-09-08T01:01:17;15.00;96.90
21676;DHT22;10999;51.332;9.458;2023-09-08T01:03:44;15.00;96.90
21676;DHT22;10999;51.332;9.458;2023-09-08T01:06:11;15.00;97.60
21676;DHT22;10999;51.332;9.458;2023-09-08T01:08:39;14.90;96.90
21676;DHT22;10999;51.332;9.458;2023-09-08T01:11:06;14.90;97.10
21676;DHT22;10999;51.332;9.458;2023-09-08T01:13:33;14.90;97.00
21676;DHT22;10999;51.332;9.458;2023-09-08T01:16:01;14.90;97.10
21676;DHT22;10999;51.332;9.458;2023-09-08T01:18:28;14.90;97.00
21676;DHT22;10999;51.332;9.458;2023-09-08T01:24:15;14.80;97.00
21676;DHT22;10999;51.332;9.458;2023-09-08T01:26:44;14.80;97.20
21676;DHT22;10999;51.332;9.458;2023-09-08T01:29:13;14.70;97.50
21676;DHT22;10999;51.332;9.458;2023-09-08T01:31:41;14.70;97.70
21676;DHT22;10999;51.332;9.458;2023-09-08T01:34:08;14.70;97.80
21676;DHT22;10999;51.332;9.458;2023-09-08T01:36:35;14.60;97.90
21676;DHT22;10999;51.332;9.458;2023-09-08T01:39:02;14.60;98.20
21676;DHT22;10999;51.332;9.458;2023-09-08T01:41:30;14.50;98.60
21676;DHT22;10999;51.332;9.458;2023-09-08T01:43:58;14.50;99.30
21676;DHT22;10999;51.332;9.458;2023-09-08T01:46:25;14.40;99.20
21676;DHT22;10999;51.332;9.458;2023-09-08T01:48:52;14.40;99.10
21676;DHT22;10999;51.332;9.458;2023-09-08T01:51:18;14.40;99.20
21676;DHT22;10999;51.332;9.458;2023-09-08T01:53:45;14.40;99.30
21676;DHT22;10999;51.332;9.458;2023-09-08T01:56:12;14.40;99.20
21676;DHT22;10999;51.332;9.458;2023-09-08T01:58:38;14.40;99.90
21676;DHT22;10999;51.332;9.458;2023-09-08T02:01:05;14.30;99.30
21676;DHT22;10999;51.332;9.458;2023-09-08T02:03:33;14.30;99.10
21676;DHT22;10999;51.332;9.458;2023-09-08T02:05:59;14.30;99.00
21676;DHT22;10999;51.332;9.458;2023-09-08T02:08:26;14.30;99.20
21676;DHT22;10999;51.332;9.458;2023-09-08T02:10:53;14.20;99.10
21676;DHT22;10999;51.332;9.458;2023-09-08T02:13:20;14.20;99.00
21676;DHT22;10999;51.332;9.458;2023-09-08T02:15:46;14.20;98.90
21676;DHT22;10999;51.332;9.458;2023-09-08T02:18:14;14.20;99.00
21676;DHT22;10999;51.332;9.458;2023-09-08T02:20:41;14.20;99.00
21676;DHT22;10999;51.332;9.458;2023-09-08T02:23:08;14.20;99.00
21676;DHT22;10999;51.332;9.458;2023-09-08T02:25:34;14.10;99.10
21676;DHT22;10999;51.332;9.458;2023-09-08T02:28:01;14.10;99.10
21676;DHT22;10999;51.332;9.458;2023-09-08T02:30:28;14.20;99.80
21676;DHT22;10999;51.332;9.458;2023-09-08T02:32:55;14.10;99.10
21676;DHT22;10999;51.332;9.458;2023-09-08T02:35:24;14.10;99.10
21676;DHT22;10999;51.332;9.458;2023-09-08T02:37:51;14.10;99.10
21676;DHT22;10999;51.332;9.458;2023-09-08T02:40:18;14.00;98.90
21676;DHT22;10999;51.332;9.458;2023-09-08T02:42:46;14.00;99.00
21676;DHT22;10999;51.332;9.458;2023-09-08T02:45:13;14.00;99.20
21676;DHT22;10999;51.332;9.458;2023-09-08T02:47:40;13.90;99.20
21676;DHT22;10999;51.332;9.458;2023-09-08T02:50:07;13.90;99.20
21676;DHT22;10999;51.332;9.458;2023-09-08T02:52:34;13.80;99.20
21676;DHT22;10999;51.332;9.458;2023-09-08T02:55:01;13.80;99.10
21676;DHT22;10999;51.332;9.458;2023-09-08T02:57:27;13.80;99.30
21676;DHT22;10999;51.332;9.458;2023-09-08T02:59:54;13.80;99.60
21676;DHT22;10999;51.332;9.458;2023-09-08T03:02:24;13.70;99.80
21676;DHT22;10999;51.332;9.458;2023-09-08T03:04:52;13.70;99.70
21676;DHT22;10999;51.332;9.458;2023-09-08T03:07:18;13.70;99.90
21676;DHT22;10999;51.332;9.458;2023-09-08T03:09:45;13.60;99.90
21676;DHT22;10999;51.332;9.458;2023-09-08T03:12:12;13.60;99.90
21676;DHT22;10999;51.332;9.458;2023-09-08T03:14:39;13.60;99.90
21676;DHT22;10999;51.332;9.458;2023-09-08T03:17:05;13.60;99.90
21676;DHT22;10999;51.332;9.458;2023-09-08T03:19:32;13.50;99.90
21676;DHT22;10999;51.332;9.458;2023-09-08T03:21:59;13.50;99.90
21676;DHT22;10999;51.332;9.458;2023-09-08T03:24:26;13.50;99.90
21676;DHT22;10999;51.332;9.458;2023-09-08T03:26:52;13.40;99.90
21676;DHT22;10999;51.332;9.458;2023-09-08T03:29:19;13.40;99.90
21676;DHT22;10999;51.332;9.458;2023-09-08T03:31:46;13.40;99.90
21676;DHT22;10999;51.332;9.458;2023-09-08T03:34:13;13.30;99.90
21676;DHT22;10999;51.332;9.458;2023-09-08T03:36:40;13.40;99.90
21676;DHT22;10999;51.332;9.458;2023-09-08T03:39:07;13.30;99.90
21676;DHT22;10999;51.332;9.458;2023-09-08T03:41:36;13.30;99.90
21676;DHT22;10999;51.332;9.458;2023-09-08T03:44:02;13.30;99.90
21676;DHT22;10999;51.332;9.458;2023-09-08T03:46:29;13.30;99.90
21676;DHT22;10999;51.332;9.458;2023-09-08T03:48:56;13.30;99.90
21676;DHT22;10999;51.332;9.458;2023-09-08T03:51:27;13.20;99.90
21676;DHT22;10999;51.332;9.458;2023-09-08T03:53:54;13.20;99.90
21676;DHT22;10999;51.332;9.458;2023-09-08T03:56:21;13.20;99.90
21676;DHT22;10999;51.332;9.458;2023-09-08T03:58:48;13.10;99.90
21676;DHT22;10999;51.332;9.458;2023-09-08T04:01:15;13.20;99.90
21676;DHT22;10999;51.332;9.458;2023-09-08T04:03:42;13.10;99.90
21676;DHT22;10999;51.332;9.458;2023-09-08T04:06:08;13.10;99.90
21676;DHT22;10999;51.332;9.458;2023-09-08T04:08:35;13.10;99.90
21676;DHT22;10999;51.332;9.458;2023-09-08T04:11:02;13.10;99.90
21676;DHT22;10999;51.332;9.458;2023-09-08T04:13:29;13.00;99.90
21676;DHT22;10999;51.332;9.458;2023-09-08T04:15:56;13.00;99.90
21676;DHT22;10999;51.332;9.458;2023-09-08T04:18:22;13.00;99.90
21676;DHT22;10999;51.332;9.458;2023-09-08T04:20:49;13.00;99.90
21676;DHT22;10999;51.332;9.458;2023-09-08T04:23:16;12.90;99.90
21676;DHT22;10999;51.332;9.458;2023-09-08T04:25:43;12.80;99.90
21676;DHT22;10999;51.332;9.458;2023-09-08T04:28:09;12.80;99.90
21676;DHT22;10999;51.332;9.458;2023-09-08T04:30:36;12.80;99.90
21676;DHT22;10999;51.332;9.458;2023-09-08T04:33:03;12.80;99.90
21676;DHT22;10999;51.332;9.458;2023-09-08T04:35:30;12.80;99.90
21676;DHT22;10999;51.332;9.458;2023-09-08T04:37:56;12.80;99.90
21676;DHT22;10999;51.332;9.458;2023-09-08T04:40:23;12.80;99.90
21676;DHT22;10999;51.332;9.458;2023-09-08T04:42:50;12.80;99.90
21676;DHT22;10999;51.332;9.458;2023-09-08T04:45:16;12.80;99.90
21676;DHT22;10999;51.332;9.458;2023-09-08T04:47:43;12.80;99.90
21676;DHT22;10999;51.332;9.458;2023-09-08T04:50:10;12.80;99.90
21676;DHT22;10999;51.332;9.458;2023-09-08T04:52:36;12.70;99.90
21676;DHT22;10999;51.332;9.458;2023-09-08T04:55:03;12.70;99.90
21676;DHT22;10999;51.332;9.458;2023-09-08T04:57:30;12.80;99.90
21676;DHT22;10999;51.332;9.458;2023-09-08T04:59:57;12.70;99.90
21676;DHT22;10999;51.332;9.458;2023-09-08T05:02:24;12.70;99.90
21676;DHT22;10999;51.332;9.458;2023-09-08T05:04:50;12.70;99.90
21676;DHT22;10999;51.332;9.458;2023-09-08T05:07:17;12.70;99.90
21676;DHT22;10999;51.332;9.458;2023-09-08T05:09:45;12.70;99.90
21676;DHT22;10999;51.332;9.458;2023-09-08T05:12:12;12.70;99.90
21676;DHT22;10999;51.332;9.458;2023-09-08T05:14:38;12.80;99.90
21676;DHT22;10999;51.332;9.458;2023-09-08T05:17:05;12.80;99.90
21676;DHT22;10999;51.332;9.458;2023-09-08T05:19:32;12.90;99.90
21676;DHT22;10999;51.332;9.458;2023-09-08T05:21:59;12.90;99.90
21676;DHT22;10999;51.332;9.458;2023-09-08T05:24:26;13.00;99.90
21676;DHT22;10999;51.332;9.458;2023-09-08T05:26:53;13.00;99.90
21676;DHT22;10999;51.332;9.458;2023-09-08T05:29:20;13.10;99.90
21676;DHT22;10999;51.332;9.458;2023-09-08T05:31:47;13.10;99.90
21676;DHT22;10999;51.332;9.458;2023-09-08T05:34:13;13.20;99.90
21676;DHT22;10999;51.332;9.458;2023-09-08T05:36:40;13.20;99.90
21676;DHT22;10999;51.332;9.458;2023-09-08T05:39:09;13.20;99.90
21676;DHT22;10999;51.332;9.458;2023-09-08T05:41:36;13.30;99.90
21676;DHT22;10999;51.332;9.458;2023-09-08T05:44:03;13.30;99.90
21676;DHT22;10999;51.332;9.458;2023-09-08T05:46:30;13.40;99.90
21676;DHT22;10999;51.332;9.458;2023-09-08T05:48:57;13.50;99.90
21676;DHT22;10999;51.332;9.458;2023-09-08T05:51:24;13.60;99.90
21676;DHT22;10999;51.332;9.458;2023-09-08T05:53:51;13.60;99.90
21676;DHT22;10999;51.332;9.458;2023-09-08T05:56:19;13.80;99.90
21676;DHT22;10999;51.332;9.458;2023-09-08T05:58:46;13.80;99.90
21676;DHT22;10999;51.332;9.458;2023-09-08T06:01:15;13.90;99.90
21676;DHT22;10999;51.332;9.458;2023-09-08T06:03:42;14.00;99.90
21676;DHT22;10999;51.332;9.458;2023-09-08T06:06:09;14.10;99.90
21676;DHT22;10999;51.332;9.458;2023-09-08T06:08:36;14.20;99.90
21676;DHT22;10999;51.332;9.458;2023-09-08T06:11:03;14.30;99.90
21676;DHT22;10999;51.332;9.458;2023-09-08T06:13:30;14.40;99.90
21676;DHT22;10999;51.332;9.458;2023-09-08T06:15:56;14.50;99.90
21676;DHT22;10999;51.332;9.458;2023-09-08T06:18:23;14.60;99.90
21676;DHT22;10999;51.332;9.458;2023-09-08T06:20:50;14.80;99.90
21676;DHT22;10999;51.332;9.458;2023-09-08T06:23:20;14.90;99.90
21676;DHT22;10999;51.332;9.458;2023-09-08T06:25:48;15.00;99.90
21676;DHT22;10999;51.332;9.458;2023-09-08T06:28:15;15.20;99.90
21676;DHT22;10999;51.332;9.458;2023-09-08T06:30:42;15.30;99.90
21676;DHT22;10999;51.332;9.458;2023-09-08T06:33:08;15.50;99.90
21676;DHT22;10999;51.332;9.458;2023-09-08T06:35:35;15.70;99.90
21676;DHT22;10999;51.332;9.458;2023-09-08T06:38:02;15.90;99.90
21676;DHT22;10999;51.332;9.458;2023-09-08T06:40:29;16.00;99.90
21676;DHT22;10999;51.332;9.458;2023-09-08T06:42:56;16.20;99.90
21676;DHT22;10999;51.332;9.458;2023-09-08T06:45:26;16.40;98.20
21676;DHT22;10999;51.332;9.458;2023-09-08T06:47:53;16.60;97.10
21676;DHT22;10999;51.332;9.458;2023-09-08T06:50:22;16.80;96.60
21676;DHT22;10999;51.332;9.458;2023-09-08T06:52:50;16.90;94.00
21676;DHT22;10999;51.332;9.458;2023-09-08T06:55:17;17.10;94.50
21676;DHT22;10999;51.332;9.458;2023-09-08T06:57:44;17.30;94.10
21676;DHT22;10999;51.332;9.458;2023-09-08T07:00:12;17.50;94.00
21676;DHT22;10999;51.332;9.458;2023-09-08T07:02:40;17.60;93.20
21676;DHT22;10999;51.332;9.458;2023-09-08T07:05:07;17.90;92.10
21676;DHT22;10999;51.332;9.458;2023-09-08T07:07:35;18.00;88.00
21676;DHT22;10999;51.332;9.458;2023-09-08T07:10:05;18.10;89.40
21676;DHT22;10999;51.332;9.458;2023-09-08T07:12:32;18.20;88.70
21676;DHT22;10999;51.332;9.458;2023-09-08T07:14:59;18.30;86.30
21676;DHT22;10999;51.332;9.458;2023-09-08T07:17:26;18.40;83.30
21676;DHT22;10999;51.332;9.458;2023-09-08T07:19:54;18.60;85.00
21676;DHT22;10999;51.332;9.458;2023-09-08T07:22:20;18.70;84.70
21676;DHT22;10999;51.332;9.458;2023-09-08T07:24:47;18.90;83.90
21676;DHT22;10999;51.332;9.458;2023-09-08T07:27:14;19.10;82.10
21676;DHT22;10999;51.332;9.458;2023-09-08T07:29:41;19.20;82.90
21676;DHT22;10999;51.332;9.458;2023-09-08T07:32:08;19.40;81.00
21676;DHT22;10999;51.332;9.458;2023-09-08T07:34:34;19.40;77.50
21676;DHT22;10999;51.332;9.458;2023-09-08T07:37:01;19.50;77.20
21676;DHT22;10999;51.332;9.458;2023-09-08T07:39:28;19.60;76.90
21676;DHT22;10999;51.332;9.458;2023-09-08T07:41:55;19.70;76.50
21676;DHT22;10999;51.332;9.458;2023-09-08T07:44:27;19.80;76.80
21676;DHT22;10999;51.332;9.458;2023-09-08T07:46:54;19.90;77.10
21676;DHT22;10999;51.332;9.458;2023-09-08T07:49:24;20.10;77.20
21676;DHT22;10999;51.332;9.458;2023-09-08T07:51:50;20.30;76.00
21676;DHT22;10999;51.332;9.458;2023-09-08T07:54:17;20.40;75.30
21676;DHT22;10999;51.332;9.458;2023-09-08T07:56:46;20.50;72.80
21676;DHT22;10999;51.332;9.458;2023-09-08T07:59:13;20.60;73.70
21676;DHT22;10999;51.332;9.458;2023-09-08T08:01:40;20.80;72.00
21676;DHT22;10999;51.332;9.458;2023-09-08T08:04:07;20.90;69.70
21676;DHT22;10999;51.332;9.458;2023-09-08T08:06:34;21.00;68.60
21676;DHT22;10999;51.332;9.458;2023-09-08T08:09:00;21.20;68.20
21676;DHT22;10999;51.332;9.458;2023-09-08T08:11:28;21.50;66.40
21676;DHT22;10999;51.332;9.458;2023-09-08T08:13:55;21.60;65.00
21676;DHT22;10999;51.332;9.458;2023-09-08T08:16:23;21.90;65.10
21676;DHT22;10999;51.332;9.458;2023-09-08T08:18:51;22.10;61.70
21676;DHT22;10999;51.332;9.458;2023-09-08T08:21:18;22.30;61.20
21676;DHT22;10999;51.332;9.458;2023-09-08T08:23:45;22.60;61.00
21676;DHT22;10999;51.332;9.458;2023-09-08T08:26:11;22.70;55.70
21676;DHT22;10999;51.332;9.458;2023-09-08T08:28:38;23.00;54.00
21676;DHT22;10999;51.332;9.458;2023-09-08T08:31:05;23.20;55.30
21676;DHT22;10999;51.332;9.458;2023-09-08T08:33:32;23.30;50.00
21676;DHT22;10999;51.332;9.458;2023-09-08T08:35:59;23.40;49.10
21676;DHT22;10999;51.332;9.458;2023-09-08T08:38:27;23.50;50.40
21676;DHT22;10999;51.332;9.458;2023-09-08T08:40:53;23.60;47.90
21676;DHT22;10999;51.332;9.458;2023-09-08T08:43:21;23.60;48.30
21676;DHT22;10999;51.332;9.458;2023-09-08T08:45:49;23.80;47.90
21676;DHT22;10999;51.332;9.458;2023-09-08T08:48:18;23.80;46.60
21676;DHT22;10999;51.332;9.458;2023-09-08T08:50:47;23.90;47.80
21676;DHT22;10999;51.332;9.458;2023-09-08T08:53:14;24.00;46.70
21676;DHT22;10999;51.332;9.458;2023-09-08T08:55:42;24.20;47.80
21676;DHT22;10999;51.332;9.458;2023-09-08T08:58:09;24.30;44.30
21676;DHT22;10999;51.332;9.458;2023-09-08T09:00:36;24.30;42.90
21676;DHT22;10999;51.332;9.458;2023-09-08T09:03:05;24.40;44.70
21676;DHT22;10999;51.332;9.458;2023-09-08T09:05:41;24.50;44.40
21676;DHT22;10999;51.332;9.458;2023-09-08T09:08:15;24.70;45.30
21676;DHT22;10999;51.332;9.458;2023-09-08T09:10:42;24.70;42.40
21676;DHT22;10999;51.332;9.458;2023-09-08T09:13:09;24.80;44.20
21676;DHT22;10999;51.332;9.458;2023-09-08T09:15:36;24.90;42.80
21676;DHT22;10999;51.332;9.458;2023-09-08T09:18:04;25.00;41.40
21676;DHT22;10999;51.332;9.458;2023-09-08T09:20:32;25.10;40.80
21676;DHT22;10999;51.332;9.458;2023-09-08T09:22:59;25.00;41.90
21676;DHT22;10999;51.332;9.458;2023-09-08T09:25:27;25.10;41.30
21676;DHT22;10999;51.332;9.458;2023-09-08T09:28:00;25.20;41.40
21676;DHT22;10999;51.332;9.458;2023-09-08T09:30:40;25.30;40.50
21676;DHT22;10999;51.332;9.458;2023-09-08T09:33:12;25.40;44.30
21676;DHT22;10999;51.332;9.458;2023-09-08T09:35:53;25.50;41.00
21676;DHT22;10999;51.332;9.458;2023-09-08T09:38:21;25.60;41.70
21676;DHT22;10999;51.332;9.458;2023-09-08T09:40:48;25.50;36.80
21676;DHT22;10999;51.332;9.458;2023-09-08T09:43:16;25.60;39.20
21676;DHT22;10999;51.332;9.458;2023-09-08T09:45:44;25.60;38.90
21676;DHT22;10999;51.332;9.458;2023-09-08T09:48:11;25.80;39.60
21676;DHT22;10999;51.332;9.458;2023-09-08T09:50:40;25.80;39.60
21676;DHT22;10999;51.332;9.458;2023-09-08T09:53:10;25.90;37.00
21676;DHT22;10999;51.332;9.458;2023-09-08T09:55:38;26.00;37.40
21676;DHT22;10999;51.332;9.458;2023-09-08T09:58:06;26.10;35.70
21676;DHT22;10999;51.332;9.458;2023-09-08T10:00:34;26.10;36.00
21676;DHT22;10999;51.332;9.458;2023-09-08T10:03:02;26.10;35.30
21676;DHT22;10999;51.332;9.458;2023-09-08T10:05:30;26.10;36.70
21676;DHT22;10999;51.332;9.458;2023-09-08T10:07:58;26.20;37.90
21676;DHT22;10999;51.332;9.458;2023-09-08T10:10:27;26.30;36.50
21676;DHT22;10999;51.332;9.458;2023-09-08T10:12:57;26.40;36.20
21676;DHT22;10999;51.332;9.458;2023-09-08T10:15:26;26.30;35.70
21676;DHT22;10999;51.332;9.458;2023-09-08T10:17:55;26.40;33.50
21676;DHT22;10999;51.332;9.458;2023-09-08T10:20:24;26.50;33.50
21676;DHT22;10999;51.332;9.458;2023-09-08T10:23:06;26.60;34.50
21676;DHT22;10999;51.332;9.458;2023-09-08T10:25:35;26.70;34.20
21676;DHT22;10999;51.332;9.458;2023-09-08T10:28:04;26.80;34.70
21676;DHT22;10999;51.332;9.458;2023-09-08T10:30:31;26.90;33.60
21676;DHT22;10999;51.332;9.458;2023-09-08T10:32:59;27.00;32.30
21676;DHT22;10999;51.332;9.458;2023-09-08T10:35:27;26.90;30.60
21676;DHT22;10999;51.332;9.458;2023-09-08T10:38:26;27.00;30.50
21676;DHT22;10999;51.332;9.458;2023-09-08T10:40:54;26.90;30.50
21676;DHT22;10999;51.332;9.458;2023-09-08T10:43:40;26.90;30.60
21676;DHT22;10999;51.332;9.458;2023-09-08T10:46:09;26.90;32.20
21676;DHT22;10999;51.332;9.458;2023-09-08T10:48:45;27.00;32.70
21676;DHT22;10999;51.332;9.458;2023-09-08T10:51:13;27.00;30.60
21676;DHT22;10999;51.332;9.458;2023-09-08T10:53:40;27.00;31.40
21676;DHT22;10999;51.332;9.458;2023-09-08T10:56:07;27.10;33.10
21676;DHT22;10999;51.332;9.458;2023-09-08T10:58:49;27.20;31.40
21676;DHT22;10999;51.332;9.458;2023-09-08T11:01:18;27.30;31.70
21676;DHT22;10999;51.332;9.458;2023-09-08T11:03:46;27.20;30.10
21676;DHT22;10999;51.332;9.458;2023-09-08T11:06:17;27.30;31.50
21676;DHT22;10999;51.332;9.458;2023-09-08T11:08:50;27.50;30.70
21676;DHT22;10999;51.332;9.458;2023-09-08T11:11:23;27.50;31.00
21676;DHT22;10999;51.332;9.458;2023-09-08T11:13:50;27.50;29.70
21676;DHT22;10999;51.332;9.458;2023-09-08T11:16:16;27.60;29.60
21676;DHT22;10999;51.332;9.458;2023-09-08T11:18:50;27.60;28.70
21676;DHT22;10999;51.332;9.458;2023-09-08T11:21:17;27.60;29.00
21676;DHT22;10999;51.332;9.458;2023-09-08T11:23:44;27.70;30.20
21676;DHT22;10999;51.332;9.458;2023-09-08T11:26:12;27.80;29.20
21676;DHT22;10999;51.332;9.458;2023-09-08T11:28:39;27.90;29.70
21676;DHT22;10999;51.332;9.458;2023-09-08T11:31:07;27.90;31.90
21676;DHT22;10999;51.332;9.458;2023-09-08T11:33:35;27.80;29.50
21676;DHT22;10999;51.332;9.458;2023-09-08T11:36:13;27.90;31.30
21676;DHT22;10999;51.332;9.458;2023-09-08T11:38:42;27.90;32.10
21676;DHT22;10999;51.332;9.458;2023-09-08T11:41:09;28.00;33.10
21676;DHT22;10999;51.332;9.458;2023-09-08T11:43:36;28.10;29.00
21676;DHT22;10999;51.332;9.458;2023-09-08T11:46:03;28.20;30.50
21676;DHT22;10999;51.332;9.458;2023-09-08T11:48:31;28.10;29.90
21676;DHT22;10999;51.332;9.458;2023-09-08T11:50:58;28.30;31.40
21676;DHT22;10999;51.332;9.458;2023-09-08T11:53:25;28.30;31.40
21676;DHT22;10999;51.332;9.458;2023-09-08T11:55:53;28.40;29.80
21676;DHT22;10999;51.332;9.458;2023-09-08T11:58:21;28.50;28.70
21676;DHT22;10999;51.332;9.458;2023-09-08T12:00:47;28.50;28.70
21676;DHT22;10999;51.332;9.458;2023-09-08T12:03:15;28.40;28.00
21676;DHT22;10999;51.332;9.458;2023-09-08T12:05:52;28.40;26.60
21676;DHT22;10999;51.332;9.458;2023-09-08T12:08:19;28.40;27.90
21676;DHT22;10999;51.332;9.458;2023-09-08T12:10:46;28.40;27.60
21676;DHT22;10999;51.332;9.458;2023-09-08T12:13:13;28.40;28.60
21676;DHT22;10999;51.332;9.458;2023-09-08T12:15:41;28.40;29.30
21676;DHT22;10999;51.332;9.458;2023-09-08T12:18:11;28.50;29.00
21676;DHT22;10999;51.332;9.458;2023-09-08T12:20:39;28.60;27.60
21676;DHT22;10999;51.332;9.458;2023-09-08T12:23:15;28.60;26.70
21676;DHT22;10999;51.332;9.458;2023-09-08T12:25:49;28.60;26.70
21676;DHT22;10999;51.332;9.458;2023-09-08T12:28:18;28.60;25.80
21676;DHT22;10999;51.332;9.458;2023-09-08T12:30:45;28.60;26.40
21676;DHT22;10999;51.332;9.458;2023-09-08T12:33:13;28.70;27.50
21676;DHT22;10999;51.332;9.458;2023-09-08T12:35:45;28.80;27.90
21676;DHT22;10999;51.332;9.458;2023-09-08T12:38:13;28.90;26.00
21676;DHT22;10999;51.332;9.458;2023-09-08T12:40:40;28.90;25.40
21676;DHT22;10999;51.332;9.458;2023-09-08T12:43:06;28.90;24.20
21676;DHT22;10999;51.332;9.458;2023-09-08T12:45:51;28.80;25.00
21676;DHT22;10999;51.332;9.458;2023-09-08T12:48:18;28.90;26.10
21676;DHT22;10999;51.332;9.458;2023-09-08T12:50:46;28.90;25.20
21676;DHT22;10999;51.332;9.458;2023-09-08T12:53:15;28.80;26.20
21676;DHT22;10999;51.332;9.458;2023-09-08T12:55:42;28.80;25.70
21676;DHT22;10999;51.332;9.458;2023-09-08T12:58:08;29.00;28.50
21676;DHT22;10999;51.332;9.458;2023-09-08T13:00:35;29.00;24.90
21676;DHT22;10999;51.332;9.458;2023-09-08T13:03:02;29.00;25.00
21676;DHT22;10999;51.332;9.458;2023-09-08T13:05:29;29.10;25.80
21676;DHT22;10999;51.332;9.458;2023-09-08T13:07:58;29.10;26.80
21676;DHT22;10999;51.332;9.458;2023-09-08T13:10:25;29.20;26.90
21676;DHT22;10999;51.332;9.458;2023-09-08T13:12:52;29.40;25.70
21676;DHT22;10999;51.332;9.458;2023-09-08T13:15:19;29.50;23.80
21676;DHT22;10999;51.332;9.458;2023-09-08T13:17:45;29.40;22.60
21676;DHT22;10999;51.332;9.458;2023-09-08T13:20:12;29.40;23.80
21676;DHT22;10999;51.332;9.458;2023-09-08T13:22:39;29.40;24.30
21676;DHT22;10999;51.332;9.458;2023-09-08T13:25:06;29.30;24.90
21676;DHT22;10999;51.332;9.458;2023-09-08T13:27:33;29.40;25.40
21676;DHT22;10999;51.332;9.458;2023-09-08T13:30:10;29.40;22.00
21676;DHT22;10999;51.332;9.458;2023-09-08T13:32:37;29.30;22.80
21676;DHT22;10999;51.332;9.458;2023-09-08T13:35:05;29.30;23.30
21676;DHT22;10999;51.332;9.458;2023-09-08T13:37:32;29.30;24.30
21676;DHT22;10999;51.332;9.458;2023-09-08T13:40:01;29.40;23.50
21676;DHT22;10999;51.332;9.458;2023-09-08T13:42:30;29.30;23.10
21676;DHT22;10999;51.332;9.458;2023-09-08T13:44:57;29.30;25.00
21676;DHT22;10999;51.332;9.458;2023-09-08T13:47:24;29.40;21.60
21676;DHT22;10999;51.332;9.458;2023-09-08T13:49:52;29.40;22.10
21676;DHT22;10999;51.332;9.458;2023-09-08T13:52:22;29.60;26.60
21676;DHT22;10999;51.332;9.458;2023-09-08T13:54:52;29.70;22.40
21676;DHT22;10999;51.332;9.458;2023-09-08T13:57:39;29.60;21.50
21676;DHT22;10999;51.332;9.458;2023-09-08T14:00:08;29.50;20.90
21676;DHT22;10999;51.332;9.458;2023-09-08T14:02:42;29.50;22.90
21676;DHT22;10999;51.332;9.458;2023-09-08T14:05:15;29.50;21.30
21676;DHT22;10999;51.332;9.458;2023-09-08T14:07:45;29.60;22.00
21676;DHT22;10999;51.332;9.458;2023-09-08T14:10:21;29.60;22.40
21676;DHT22;10999;51.332;9.458;2023-09-08T14:12:50;29.60;21.60
21676;DHT22;10999;51.332;9.458;2023-09-08T14:15:17;29.60;23.90
21676;DHT22;10999;51.332;9.458;2023-09-08T14:17:44;29.70;23.30
21676;DHT22;10999;51.332;9.458;2023-09-08T14:20:11;29.80;20.00
21676;DHT22;10999;51.332;9.458;2023-09-08T14:22:38;29.80;21.70
21676;DHT22;10999;51.332;9.458;2023-09-08T14:25:05;29.70;19.80
21676;DHT22;10999;51.332;9.458;2023-09-08T14:27:32;29.80;21.60
21676;DHT22;10999;51.332;9.458;2023-09-08T14:30:00;29.80;23.20
21676;DHT22;10999;51.332;9.458;2023-09-08T14:32:27;29.80;22.10
21676;DHT22;10999;51.332;9.458;2023-09-08T14:34:54;29.90;20.60
21676;DHT22;10999;51.332;9.458;2023-09-08T14:37:21;29.90;21.70
21676;DHT22;10999;51.332;9.458;2023-09-08T14:39:47;30.00;21.70
21676;DHT22;10999;51.332;9.458;2023-09-08T14:42:14;30.00;20.90
21676;DHT22;10999;51.332;9.458;2023-09-08T14:44:42;30.00;20.50
21676;DHT22;10999;51.332;9.458;2023-09-08T14:47:08;29.90;22.00
21676;DHT22;10999;51.332;9.458;2023-09-08T14:49:35;29.90;20.50
21676;DHT22;10999;51.332;9.458;2023-09-08T14:52:02;30.00;22.70
21676;DHT22;10999;51.332;9.458;2023-09-08T14:54:28;30.00;22.00
21676;DHT22;10999;51.332;9.458;2023-09-08T14:56:55;30.10;19.30
21676;DHT22;10999;51.332;9.458;2023-09-08T14:59:22;30.00;19.70
21676;DHT22;10999;51.332;9.458;2023-09-08T15:01:49;30.00;20.00
21676;DHT22;10999;51.332;9.458;2023-09-08T15:04:17;30.10;19.80
21676;DHT22;10999;51.332;9.458;2023-09-08T15:06:44;30.00;18.10
21676;DHT22;10999;51.332;9.458;2023-09-08T15:09:11;30.00;16.20
21676;DHT22;10999;51.332;9.458;2023-09-08T15:11:39;30.00;19.20
21676;DHT22;10999;51.332;9.458;2023-09-08T15:14:05;30.00;15.50
21676;DHT22;10999;51.332;9.458;2023-09-08T15:16:33;30.00;15.40
21676;DHT22;10999;51.332;9.458;2023-09-08T15:18:59;29.80;15.20
21676;DHT22;10999;51.332;9.458;2023-09-08T15:21:26;29.80;17.70
21676;DHT22;10999;51.332;9.458;2023-09-08T15:23:56;29.80;16.00
21676;DHT22;10999;51.332;9.458;2023-09-08T15:26:23;29.80;17.10
21676;DHT22;10999;51.332;9.458;2023-09-08T15:28:50;29.70;16.40
21676;DHT22;10999;51.332;9.458;2023-09-08T15:31:17;29.70;17.30
21676;DHT22;10999;51.332;9.458;2023-09-08T15:33:44;29.60;16.50
21676;DHT22;10999;51.332;9.458;2023-09-08T15:36:11;29.60;16.10
21676;DHT22;10999;51.332;9.458;2023-09-08T15:38:38;29.60;16.40